createdAt,value
2019-01-27T13:45:48.091Z,3.63
2019-01-27T13:48:37.214Z,4.33
2019-01-27T13:51:26.087Z,2.97
2019-01-27T13:54:15.041Z,4.80
2019-01-27T13:57:05.567Z,8.07
2019-01-27T13:59:54.747Z,6.03
2019-01-27T14:02:45.372Z,4.53
2019-01-27T14:05:34.394Z,3.13
2019-01-27T14:08:23.333Z,6.23
2019-01-27T14:11:31.850Z,3.37
2019-01-27T14:14:14.731Z,7.90
2019-01-27T15:18:52.764Z,16.63
2019-01-27T15:21:41.847Z,8.20
2019-01-27T15:24:30.924Z,12.90
2019-01-27T15:27:19.922Z,16.03
2019-01-27T15:30:29.571Z,15.65
2019-01-27T15:33:18.726Z,18.33
2019-01-27T15:36:07.820Z,14.20
2019-01-27T15:38:56.824Z,15.27
2019-01-27T15:41:46.101Z,13.32
2019-01-27T15:44:35.161Z,14.97
2019-01-27T15:47:26.018Z,13.20
2019-01-27T15:50:35.751Z,10.83
2019-01-27T15:53:26.627Z,13.37
2019-01-27T15:56:15.510Z,8.90
2019-01-27T15:59:04.700Z,12.57
2019-01-27T16:01:53.836Z,11.63
2019-01-27T16:05:02.251Z,15.50
2019-01-27T16:07:51.723Z,9.87
2019-01-27T16:10:40.689Z,17.63
2019-01-27T16:13:29.923Z,15.73
2019-01-27T16:16:13.967Z,16.30
2019-01-27T16:19:02.938Z,16.67
2019-01-27T16:21:51.850Z,19.13
2019-01-27T16:24:41.067Z,15.33
2019-01-27T16:30:57.991Z,10.90
2019-01-27T16:34:06.637Z,11.57
2019-01-27T16:36:55.780Z,10.30
2019-01-27T16:39:44.855Z,10.37
2019-01-27T16:42:33.860Z,11.63
2019-01-27T16:45:22.937Z,10.93
2019-01-27T16:48:11.998Z,10.23
2019-01-27T16:50:41.750Z,14.53
2019-01-27T16:53:30.729Z,9.57
2019-01-27T16:59:22.304Z,14.23
2019-01-27T17:02:11.311Z,9.27
2019-01-27T17:05:00.593Z,13.00
2019-01-27T17:07:49.595Z,14.07
2019-01-27T17:10:39.037Z,10.07
2019-01-27T17:13:28.178Z,12.10
2019-01-27T17:16:10.795Z,15.63
2019-01-27T17:18:59.710Z,15.13
2019-01-27T17:21:48.755Z,9.13
2019-01-27T17:24:39.430Z,15.37
2019-01-27T17:27:30.011Z,15.63
2019-01-27T17:33:08.543Z,17.53
2019-01-27T17:35:57.497Z,19.00
2019-01-27T17:38:46.625Z,18.30
2019-01-27T17:44:38.078Z,13.60
2019-01-27T17:50:27.974Z,19.33
2019-01-27T17:53:17.264Z,17.23
2019-01-27T17:56:06.195Z,25.23
2019-01-27T18:11:17.986Z,28.20
2019-01-27T18:17:22.051Z,17.07
2019-01-27T18:20:18.643Z,24.00
2019-01-27T18:23:21.389Z,32.10
2019-01-27T18:26:17.771Z,24.07
2019-01-27T18:29:06.794Z,27.30
2019-01-27T18:31:57.586Z,35.20
2019-01-27T18:34:27.704Z,28.80
2019-01-27T18:37:16.978Z,22.33
2019-01-27T18:40:27.053Z,29.73
2019-01-27T18:43:16.469Z,21.03
2019-01-27T18:45:46.293Z,24.03
2019-01-27T18:48:35.494Z,28.13
2019-01-27T18:51:44.279Z,18.07
2019-01-27T18:58:48.364Z,23.17
2019-01-27T19:01:58.326Z,15.03
2019-01-27T19:05:06.693Z,10.10
2019-01-27T19:08:16.484Z,13.80
2019-01-27T19:11:25.009Z,12.63
2019-01-27T19:14:41.040Z,11.37
2019-01-27T19:17:29.786Z,15.57
2019-01-27T19:23:48.779Z,20.00
2019-01-27T19:26:57.041Z,20.37
2019-01-27T19:39:15.859Z,14.87
2019-01-27T19:42:24.088Z,34.37
2019-01-27T19:45:32.435Z,18.00
2019-01-27T19:48:40.553Z,18.23
2019-01-27T19:51:51.787Z,18.17
2019-01-27T19:55:01.484Z,14.30
2019-01-27T20:01:18.023Z,22.10
2019-01-27T20:04:26.306Z,22.00
2019-01-27T20:13:46.752Z,21.67
2019-01-27T20:29:27.254Z,42.07
2019-01-27T20:32:37.236Z,25.40
2019-01-27T20:35:42.500Z,25.17
2019-01-27T20:41:50.474Z,30.27
2019-01-27T20:48:12.559Z,20.90
2019-01-27T20:57:39.391Z,25.30
2019-01-27T21:06:50.961Z,22.00
2019-01-27T21:09:59.412Z,17.60
2019-01-27T21:16:14.630Z,25.00
2019-01-27T21:22:05.910Z,34.57
2019-01-27T21:25:15.725Z,20.30
2019-01-27T21:28:05.161Z,27.47
2019-01-27T21:34:29.053Z,25.13
2019-01-27T21:37:18.098Z,39.00
2019-01-27T21:40:27.762Z,20.97
2019-01-27T21:43:36.186Z,34.20
2019-01-27T21:46:27.062Z,33.90
2019-01-27T21:49:16.101Z,24.70
2019-01-27T21:55:26.280Z,12.83
2019-01-27T21:58:15.677Z,14.20
2019-01-27T22:04:33.833Z,14.43
2019-01-27T22:07:22.943Z,15.23
